Time;durP1;ratioP1;P1;durP2;ratioP2;P2;SDS_P1;SDS_P2;PMS_P1;PMS_P2;Temp;Humidity;BMP_temperature;BMP_pressure;BME280_temperature;BME280_humidity;BME280_pressure;Samples;Min_cycle;Max_cycle;Signal;HPM_P1;HPM_P2
2022/03/24 00:00:31;;;;;;;9.88;7.50;;;26.00;99.90;;;;;;1791734;78;21224;-83
2022/03/24 00:03:02;;;;;;;11.18;7.17;;;26.00;99.90;;;;;;1890001;76;21530;-84
2022/03/24 00:05:34;;;;;;;9.48;7.40;;;26.00;99.90;;;;;;1830440;76;21178;-82
2022/03/24 00:08:06;;;;;;;11.85;6.92;;;26.00;99.90;;;;;;1819835;78;21231;-83
2022/03/24 00:10:37;;;;;;;11.80;6.80;;;26.10;99.90;;;;;;1812754;77;21250;-84
2022/03/24 00:13:08;;;;;;;10.93;6.72;;;26.10;99.90;;;;;;1845249;78;21129;-83
2022/03/24 00:15:39;;;;;;;10.35;7.62;;;26.10;99.90;;;;;;1822721;77;21073;-83
2022/03/24 00:18:10;;;;;;;9.48;6.75;;;26.10;99.90;;;;;;1817566;79;21144;-83
2022/03/24 00:20:43;;;;;;;8.70;6.90;;;26.10;99.90;;;;;;1798070;77;21580;-83
2022/03/24 00:23:14;;;;;;;9.18;7.30;;;26.20;99.90;;;;;;1823202;78;21695;-83
2022/03/24 00:25:46;;;;;;;10.38;7.33;;;26.20;99.90;;;;;;1888442;76;21218;-83
2022/03/24 00:28:17;;;;;;;10.28;7.65;;;26.20;99.90;;;;;;1888896;74;21166;-82
2022/03/24 00:30:48;;;;;;;13.45;7.35;;;26.20;99.90;;;;;;1872651;76;21095;-82
2022/03/24 00:33:19;;;;;;;10.85;7.78;;;26.10;99.90;;;;;;1883795;74;21151;-82
2022/03/24 00:35:51;;;;;;;10.55;7.42;;;26.20;99.90;;;;;;1891078;76;21142;-81
2022/03/24 00:38:26;;;;;;;11.25;7.55;;;26.20;99.90;;;;;;1877980;76;21150;-85
2022/03/24 00:40:57;;;;;;;10.63;8.00;;;26.20;99.90;;;;;;1871105;76;21609;-82
2022/03/24 00:43:28;;;;;;;11.45;7.83;;;26.20;99.90;;;;;;1871284;77;21094;-81
2022/03/24 00:45:59;;;;;;;10.13;8.45;;;26.30;99.90;;;;;;1867686;77;21153;-80
2022/03/24 00:48:30;;;;;;;10.58;8.10;;;26.30;99.90;;;;;;1872153;77;21126;-81
2022/03/24 00:51:05;;;;;;;14.93;8.53;;;26.30;99.90;;;;;;1853765;77;21211;-80
2022/03/24 00:53:36;;;;;;;13.45;8.70;;;26.40;99.90;;;;;;1855062;75;21138;-80
2022/03/24 00:56:07;;;;;;;10.68;8.70;;;26.30;99.90;;;;;;1832521;77;21731;-81
2022/03/24 00:58:38;;;;;;;12.30;8.78;;;26.40;99.90;;;;;;1870069;75;21204;-84
2022/03/24 01:01:12;;;;;;;13.93;8.85;;;26.40;99.90;;;;;;1844245;77;21169;-81
2022/03/24 01:03:45;;;;;;;13.03;9.60;;;26.40;99.90;;;;;;1831795;77;21185;-80
2022/03/24 01:06:17;;;;;;;13.65;9.33;;;26.50;99.90;;;;;;1833077;77;21182;-80
2022/03/24 01:08:55;;;;;;;13.08;10.10;;;26.50;99.90;;;;;;1832794;78;21162;-80
2022/03/24 01:11:25;;;;;;;13.98;9.38;;;26.50;99.90;;;;;;1829843;77;21070;-80
2022/03/24 01:13:56;;;;;;;11.78;10.00;;;26.50;99.90;;;;;;1825768;78;21166;-81
2022/03/24 01:16:29;;;;;;;14.55;10.58;;;26.50;99.90;;;;;;1867548;77;21694;-81
2022/03/24 01:19:00;;;;;;;11.95;9.98;;;26.50;99.90;;;;;;1867972;75;21141;-81
2022/03/24 01:21:31;;;;;;;16.23;11.10;;;26.50;99.90;;;;;;1823572;78;21175;-81
2022/03/24 01:24:02;;;;;;;13.88;10.98;;;26.50;99.90;;;;;;1864457;75;21143;-81
2022/03/24 01:26:33;;;;;;;12.88;10.78;;;26.50;99.90;;;;;;1827977;78;21135;-80
2022/03/24 01:29:06;;;;;;;14.73;10.40;;;26.60;99.90;;;;;;1855044;75;21178;-81
2022/03/24 01:31:42;;;;;;;13.32;10.90;;;26.50;99.90;;;;;;1866090;77;21145;-79
2022/03/24 01:34:09;;;;;;;13.90;10.88;;;26.60;99.90;;;;;;1833514;77;21148;-81
2022/03/24 01:36:40;;;;;;;11.78;9.58;;;26.60;99.90;;;;;;1871905;75;21121;-81
2022/03/24 01:39:11;;;;;;;12.10;10.65;;;26.60;99.90;;;;;;1806925;78;21197;-82
2022/03/24 01:41:44;;;;;;;16.50;10.15;;;26.60;99.90;;;;;;1828170;77;21200;-81
2022/03/24 01:44:17;;;;;;;13.70;10.28;;;26.60;99.90;;;;;;1869668;75;21078;-81
2022/03/24 01:46:51;;;;;;;12.55;10.03;;;26.60;99.90;;;;;;1827418;78;21103;-81
2022/03/24 01:49:21;;;;;;;13.75;10.25;;;26.70;99.90;;;;;;1852683;75;21212;-81
2022/03/24 01:51:53;;;;;;;14.68;10.00;;;26.70;99.90;;;;;;1860663;77;21145;-80
2022/03/24 01:54:27;;;;;;;12.05;9.48;;;26.70;99.90;;;;;;1869503;75;21078;-83
2022/03/24 01:56:59;;;;;;;12.33;9.00;;;26.80;99.90;;;;;;1868054;75;21125;-74
2022/03/24 01:59:37;;;;;;;11.03;9.48;;;26.80;99.90;;;;;;1849927;77;21082;-71
2022/03/24 02:02:10;;;;;;;13.43;9.40;;;26.80;99.90;;;;;;1864507;77;21176;-70
2022/03/24 02:04:43;;;;;;;14.45;9.58;;;26.80;99.90;;;;;;1852372;77;21110;-71
2022/03/24 02:07:14;;;;;;;11.83;9.48;;;26.80;99.90;;;;;;1860995;77;21165;-71
2022/03/24 02:09:45;;;;;;;14.03;8.63;;;26.90;99.90;;;;;;1869313;75;21141;-72
2022/03/24 02:12:16;;;;;;;10.72;8.18;;;26.90;99.90;;;;;;1866745;75;21157;-71
2022/03/24 02:14:47;;;;;;;11.90;8.30;;;27.00;99.90;;;;;;1822076;78;21767;-71
2022/03/24 02:17:22;;;;;;;11.88;8.63;;;27.10;99.90;;;;;;1823023;78;21164;-70
2022/03/24 02:19:54;;;;;;;9.83;7.33;;;27.10;99.90;;;;;;1864644;75;21216;-71
2022/03/24 02:22:26;;;;;;;10.15;7.40;;;27.20;99.90;;;;;;1836117;77;21127;-72
2022/03/24 02:24:57;;;;;;;9.43;7.28;;;27.20;99.90;;;;;;1867592;75;21683;-70
2022/03/24 02:27:28;;;;;;;9.43;6.80;;;27.30;99.90;;;;;;1836684;77;21313;-73
2022/03/24 02:29:59;;;;;;;9.98;6.90;;;27.30;99.90;;;;;;1834096;78;21681;-70
2022/03/24 02:32:30;;;;;;;10.72;7.25;;;27.40;99.90;;;;;;1826321;78;21163;-70
2022/03/24 02:35:01;;;;;;;8.70;6.58;;;27.50;99.90;;;;;;1831631;78;21142;-69
2022/03/24 02:37:36;;;;;;;10.28;6.75;;;27.60;99.90;;;;;;1826068;77;21467;-72
2022/03/24 02:40:07;;;;;;;9.00;6.92;;;27.70;99.90;;;;;;1868154;75;21183;-72
2022/03/24 02:42:38;;;;;;;7.12;5.60;;;27.80;99.90;;;;;;1888310;76;21052;-70
2022/03/24 02:45:10;;;;;;;6.87;6.05;;;27.90;99.90;;;;;;1888413;74;21182;-70
2022/03/24 02:47:41;;;;;;;7.87;6.42;;;28.00;99.90;;;;;;1892933;74;21645;-71
2022/03/24 02:50:12;;;;;;;9.73;6.83;;;28.00;99.90;;;;;;1888147;76;21091;-70
2022/03/24 02:52:43;;;;;;;10.03;7.15;;;28.10;99.70;;;;;;1895111;74;21727;-71
2022/03/24 02:55:14;;;;;;;9.88;6.08;;;28.20;99.60;;;;;;1889838;74;21157;-71
2022/03/24 02:57:45;;;;;;;7.85;6.25;;;28.30;99.00;;;;;;1893056;74;21178;-71
2022/03/24 03:00:16;;;;;;;5.95;5.30;;;28.40;98.80;;;;;;1892138;75;21618;-72
2022/03/24 03:02:47;;;;;;;6.55;5.15;;;28.40;98.70;;;;;;1895309;74;21112;-72
2022/03/24 03:05:19;;;;;;;7.40;5.55;;;28.50;97.80;;;;;;1884349;74;21122;-71
2022/03/24 03:07:53;;;;;;;8.70;5.22;;;28.60;98.10;;;;;;1883004;74;21182;-73
2022/03/24 03:10:23;;;;;;;5.65;4.67;;;28.70;97.30;;;;;;1893200;74;21091;-72
2022/03/24 03:12:54;;;;;;;6.28;4.12;;;28.70;97.60;;;;;;1883929;75;21079;-71
2022/03/24 03:15:25;;;;;;;5.95;4.40;;;28.70;96.60;;;;;;1885428;75;21784;-71
2022/03/24 03:17:56;;;;;;;5.92;3.92;;;28.80;96.30;;;;;;1845092;76;21081;-72
2022/03/24 03:20:27;;;;;;;5.97;4.70;;;28.80;96.10;;;;;;1811757;77;21168;-72
2022/03/24 03:22:59;;;;;;;9.23;4.53;;;29.00;96.60;;;;;;1821306;77;21183;-72
2022/03/24 03:25:31;;;;;;;6.33;5.12;;;29.10;96.00;;;;;;1821556;77;21639;-71
2022/03/24 03:28:02;;;;;;;7.83;4.53;;;29.20;95.80;;;;;;1820841;77;21121;-70
2022/03/24 03:30:34;;;;;;;6.97;4.78;;;29.20;95.30;;;;;;1820468;79;21204;-71
2022/03/24 03:33:05;;;;;;;6.70;4.28;;;29.20;96.00;;;;;;1819759;77;21137;-72
2022/03/24 03:35:36;;;;;;;6.65;4.95;;;29.30;96.10;;;;;;1842633;76;21189;-72
2022/03/24 03:38:10;;;;;;;7.35;4.72;;;29.30;95.90;;;;;;1820590;77;21605;-71
2022/03/24 03:40:47;;;;;;;6.15;4.97;;;29.30;95.10;;;;;;1832058;76;21132;-73
2022/03/24 03:43:18;;;;;;;6.25;4.78;;;29.30;95.30;;;;;;1871020;75;21650;-71
2022/03/24 03:45:49;;;;;;;4.40;3.90;;;29.30;95.80;;;;;;1855802;76;21751;-71
2022/03/24 03:48:20;;;;;;;6.62;4.60;;;29.30;95.40;;;;;;1909764;74;21086;-71
2022/03/24 03:50:51;;;;;;;6.20;3.87;;;29.30;95.80;;;;;;1845425;77;21211;-71
2022/03/24 03:53:24;;;;;;;5.37;3.87;;;29.30;95.30;;;;;;1874051;75;21643;-71
2022/03/24 03:55:55;;;;;;;5.10;4.05;;;29.30;94.90;;;;;;1859225;76;21116;-71
2022/03/24 03:58:26;;;;;;;5.10;4.05;;;29.20;94.80;;;;;;1904631;74;21155;-71
2022/03/24 04:00:57;;;;;;;7.65;4.37;;;29.30;95.00;;;;;;1841403;77;21162;-70
2022/03/24 04:03:30;;;;;;;6.28;4.92;;;29.30;95.00;;;;;;1877158;75;21614;-71
2022/03/24 04:06:07;;;;;;;7.03;4.67;;;29.40;95.20;;;;;;1883722;75;21221;-71
2022/03/24 04:08:36;;;;;;;5.95;4.40;;;29.40;95.40;;;;;;1862115;76;21204;-72
2022/03/24 04:11:09;;;;;;;8.73;4.47;;;29.50;94.10;;;;;;1911202;74;21718;-72
2022/03/24 04:13:43;;;;;;;10.00;5.00;;;29.50;94.40;;;;;;1841163;77;21257;-71
2022/03/24 04:16:14;;;;;;;6.47;5.40;;;29.70;94.40;;;;;;1843104;77;21146;-70
2022/03/24 04:18:47;;;;;;;5.47;4.83;;;29.90;94.10;;;;;;1863300;75;21228;-71
2022/03/24 04:21:19;;;;;;;5.83;4.60;;;30.00;93.80;;;;;;1865797;75;21207;-71
2022/03/24 04:23:51;;;;;;;7.12;5.62;;;30.10;93.50;;;;;;1845820;76;21136;-71
2022/03/24 04:26:22;;;;;;;7.62;4.92;;;30.10;95.20;;;;;;1901468;75;21126;-71
2022/03/24 04:29:00;;;;;;;5.78;5.12;;;30.10;92.40;;;;;;1865797;77;21155;-73
2022/03/24 04:31:34;;;;;;;5.25;4.53;;;30.20;91.90;;;;;;1864207;75;21219;-72
2022/03/24 04:34:05;;;;;;;7.28;4.90;;;30.40;93.50;;;;;;1858082;76;21620;-72
2022/03/24 04:36:36;;;;;;;7.95;5.22;;;30.50;92.40;;;;;;1865544;75;21201;-71
2022/03/24 04:39:13;;;;;;;6.15;4.67;;;30.70;92.30;;;;;;1866095;75;21171;-73
2022/03/24 04:41:44;;;;;;;10.35;5.00;;;30.80;91.10;;;;;;1846347;77;21121;-72
2022/03/24 04:44:22;;;;;;;7.37;5.28;;;30.90;91.00;;;;;;1873872;76;21792;-73
2022/03/24 04:46:53;;;;;;;9.28;5.87;;;31.10;91.80;;;;;;1858036;76;21615;-73
2022/03/24 04:49:24;;;;;;;8.35;5.37;;;31.20;91.20;;;;;;1907687;74;21074;-82
2022/03/24 04:51:55;;;;;;;6.20;4.55;;;31.40;92.30;;;;;;1908624;75;21231;-84
2022/03/24 04:54:26;;;;;;;5.90;5.05;;;31.60;90.40;;;;;;1836676;78;21171;-82
2022/03/24 04:56:57;;;;;;;6.47;4.90;;;31.70;90.20;;;;;;1875224;75;21163;-82
2022/03/24 04:59:28;;;;;;;6.35;4.70;;;31.70;91.30;;;;;;1855655;77;21144;-82
2022/03/24 05:02:08;;;;;;;7.00;5.25;;;31.60;87.70;;;;;;1908182;75;21262;-82
2022/03/24 05:04:39;;;;;;;7.25;5.10;;;31.50;88.90;;;;;;1908502;75;21649;-83
2022/03/24 05:07:10;;;;;;;11.08;6.00;;;31.50;90.00;;;;;;1871032;76;21186;-74
2022/03/24 05:09:41;;;;;;;6.53;5.30;;;31.50;88.70;;;;;;1869980;76;21151;-75
2022/03/24 05:12:14;;;;;;;7.50;5.62;;;31.50;88.60;;;;;;1874808;76;21146;-73
2022/03/24 05:14:48;;;;;;;8.40;5.67;;;31.50;88.10;;;;;;1867063;75;21159;-73
2022/03/24 05:17:21;;;;;;;6.87;4.77;;;31.60;88.00;;;;;;1862157;77;21627;-73
2022/03/24 05:19:52;;;;;;;6.60;5.37;;;31.70;86.40;;;;;;1902164;75;21220;-73
2022/03/24 05:22:23;;;;;;;7.95;5.47;;;31.80;86.80;;;;;;1870679;76;21700;-73
2022/03/24 05:24:56;;;;;;;6.72;5.53;;;31.80;86.20;;;;;;1869205;75;21187;-73
2022/03/24 05:27:26;;;;;;;6.25;5.10;;;32.00;85.50;;;;;;1861937;77;21631;-74
2022/03/24 05:29:57;;;;;;;7.20;5.50;;;32.10;83.50;;;;;;1870763;75;21563;-74
2022/03/24 05:32:32;;;;;;;8.30;5.92;;;32.00;84.10;;;;;;1872296;75;21195;-72
2022/03/24 05:35:03;;;;;;;7.37;6.33;;;31.90;85.30;;;;;;1907243;75;21091;-73
2022/03/24 05:37:34;;;;;;;9.35;6.00;;;31.90;85.50;;;;;;1911883;74;21866;-75
2022/03/24 05:40:05;;;;;;;6.58;5.58;;;32.00;83.80;;;;;;1861227;75;21187;-74
2022/03/24 05:42:36;;;;;;;6.55;5.78;;;32.00;83.50;;;;;;1857301;76;21832;-73
2022/03/24 05:45:08;;;;;;;7.08;5.80;;;32.10;84.00;;;;;;1842990;76;21665;-73
2022/03/24 05:47:39;;;;;;;7.90;5.65;;;31.90;86.80;;;;;;1818040;77;21651;-72
2022/03/24 05:50:10;;;;;;;10.00;6.15;;;31.90;83.80;;;;;;1821660;79;21200;-71
2022/03/24 05:52:41;;;;;;;7.33;6.05;;;31.80;84.30;;;;;;1816822;77;21250;-73
2022/03/24 05:55:16;;;;;;;7.62;6.15;;;31.80;83.30;;;;;;1826407;77;21658;-73
2022/03/24 05:57:48;;;;;;;6.85;6.00;;;31.80;83.10;;;;;;1844600;78;21621;-72
2022/03/24 06:00:19;;;;;;;10.10;6.10;;;31.90;87.50;;;;;;1841915;76;21132;-74
2022/03/24 06:02:50;;;;;;;7.60;6.03;;;32.00;84.90;;;;;;1892509;74;21106;-73
2022/03/24 06:05:25;;;;;;;7.37;6.33;;;32.10;82.20;;;;;;1895432;74;21165;-72
2022/03/24 06:08:03;;;;;;;10.48;6.42;;;32.10;82.50;;;;;;1886540;74;21098;-73
2022/03/24 06:10:34;;;;;;;8.25;6.00;;;32.20;82.30;;;;;;1888248;74;21568;-73
2022/03/24 06:13:06;;;;;;;8.25;6.65;;;32.30;83.50;;;;;;1887920;74;21183;-71
2022/03/24 06:15:37;;;;;;;8.50;6.90;;;32.40;82.00;;;;;;1887791;74;21652;-72
2022/03/24 06:18:08;;;;;;;9.70;6.83;;;32.50;80.30;;;;;;1885985;74;21520;-71
2022/03/24 06:20:39;;;;;;;7.83;6.70;;;32.60;81.60;;;;;;1907011;74;21197;-71
2022/03/24 06:23:10;;;;;;;8.75;6.62;;;32.70;81.40;;;;;;1886562;74;21632;-72
2022/03/24 06:25:43;;;;;;;6.90;4.92;;;32.80;80.00;;;;;;1891049;74;21196;-72
2022/03/24 06:28:14;;;;;;;6.90;5.25;;;32.90;77.20;;;;;;1886516;74;21096;-72
2022/03/24 06:30:44;;;;;;;6.80;5.47;;;33.00;77.60;;;;;;1843544;78;21064;-72
2022/03/24 06:33:16;;;;;;;7.72;6.10;;;33.10;78.20;;;;;;1812104;77;21152;-71
2022/03/24 06:35:49;;;;;;;8.10;6.42;;;33.10;80.20;;;;;;1836702;76;21840;-73
2022/03/24 06:38:39;;;;;;;7.53;5.65;;;33.00;78.60;;;;;;1838814;76;21664;-72
2022/03/24 06:41:22;;;;;;;11.28;6.15;;;33.00;77.60;;;;;;1848395;76;21176;-73
2022/03/24 06:43:57;;;;;;;6.85;6.10;;;32.80;81.50;;;;;;1813285;77;21139;-72
2022/03/24 06:46:27;;;;;;;7.30;6.00;;;32.80;80.40;;;;;;1857250;75;21620;-72
2022/03/24 06:49:00;;;;;;;9.53;5.60;;;32.80;79.70;;;;;;1906704;74;21090;-73
2022/03/24 06:51:31;;;;;;;6.83;5.28;;;32.90;77.40;;;;;;1906375;75;21569;-73
2022/03/24 06:54:03;;;;;;;8.00;5.90;;;32.90;76.60;;;;;;1839262;78;21178;-72
2022/03/24 06:56:34;;;;;;;7.30;5.17;;;32.80;77.60;;;;;;1862021;75;21497;-73
2022/03/24 06:59:06;;;;;;;6.37;5.22;;;32.80;77.60;;;;;;1908513;74;21070;-73
2022/03/24 07:01:37;;;;;;;7.60;5.45;;;32.70;76.20;;;;;;1908580;75;21134;-73
2022/03/24 07:04:08;;;;;;;6.87;5.25;;;32.70;77.20;;;;;;1842516;78;21615;-73
2022/03/24 07:06:40;;;;;;;8.10;6.22;;;32.70;76.80;;;;;;1864357;75;21568;-72
2022/03/24 07:09:11;;;;;;;7.05;5.12;;;32.70;79.50;;;;;;1900692;74;21100;-72
2022/03/24 07:11:42;;;;;;;7.50;5.25;;;32.70;80.80;;;;;;1876887;75;21665;-70
2022/03/24 07:14:14;;;;;;;9.73;5.03;;;32.70;77.60;;;;;;1864684;77;21152;-72
2022/03/24 07:16:45;;;;;;;8.30;5.78;;;32.70;77.10;;;;;;1906777;74;21517;-71
2022/03/24 07:19:16;;;;;;;6.15;5.28;;;32.70;77.30;;;;;;1909791;74;21195;-71
2022/03/24 07:21:47;;;;;;;10.23;6.12;;;32.70;77.50;;;;;;1844001;78;21104;-73
2022/03/24 07:24:22;;;;;;;7.28;5.47;;;32.70;77.70;;;;;;1865767;76;21261;-71
2022/03/24 07:26:54;;;;;;;9.88;5.50;;;32.70;77.60;;;;;;1888484;74;21739;-71
2022/03/24 07:29:44;;;;;;;7.17;5.50;;;32.70;81.20;;;;;;1905663;74;21121;-71
2022/03/24 07:32:17;;;;;;;9.13;5.80;;;32.70;79.10;;;;;;1907615;75;21122;-71
2022/03/24 07:34:48;;;;;;;8.18;5.15;;;32.80;78.10;;;;;;1907701;75;21229;-72
2022/03/24 07:37:19;;;;;;;6.45;5.33;;;32.80;82.30;;;;;;1917229;74;21239;-72
2022/03/24 07:39:50;;;;;;;7.10;5.90;;;32.80;79.10;;;;;;1875727;75;21175;-73
2022/03/24 07:42:21;;;;;;;7.40;6.30;;;32.90;77.50;;;;;;1886345;75;21170;-72
2022/03/24 07:44:52;;;;;;;8.93;6.72;;;33.00;76.90;;;;;;1874288;75;21619;-71
2022/03/24 07:47:24;;;;;;;8.15;5.83;;;32.90;75.50;;;;;;1862106;77;21684;-72
2022/03/24 07:49:56;;;;;;;9.58;6.30;;;32.90;75.60;;;;;;1868305;75;21565;-72
2022/03/24 07:52:29;;;;;;;8.05;5.85;;;32.90;76.30;;;;;;1868546;75;21599;-71
2022/03/24 07:55:02;;;;;;;8.78;5.33;;;33.00;80.00;;;;;;1851603;77;21129;-74
2022/03/24 07:57:33;;;;;;;7.35;5.83;;;32.90;75.50;;;;;;1935315;74;21132;-72
2022/03/24 08:00:05;;;;;;;9.73;5.92;;;33.00;77.50;;;;;;1879391;75;21594;-72
2022/03/24 08:02:38;;;;;;;8.43;6.42;;;32.90;79.60;;;;;;1862950;76;21520;-72
2022/03/24 08:05:09;;;;;;;11.18;6.03;;;32.90;77.10;;;;;;1868899;76;21244;-72
2022/03/24 08:07:40;;;;;;;8.95;6.10;;;32.90;78.00;;;;;;1865249;76;21245;-71
2022/03/24 08:10:11;;;;;;;8.08;5.53;;;32.80;76.50;;;;;;1828407;77;21180;-71
2022/03/24 08:12:42;;;;;;;6.83;5.50;;;32.90;77.70;;;;;;1865413;75;21500;-71
2022/03/24 08:15:13;;;;;;;5.97;5.33;;;32.80;76.50;;;;;;1851587;77;21156;-72
2022/03/24 08:17:51;;;;;;;6.47;5.30;;;32.80;75.60;;;;;;1902139;74;21142;-71
2022/03/24 08:20:47;;;;;;;6.72;4.92;;;32.80;75.20;;;;;;1811018;78;21142;-72
2022/03/24 08:23:14;;;;;;;8.28;5.28;;;32.80;75.20;;;;;;1831692;77;21687;-72
2022/03/24 08:25:46;;;;;;;8.93;5.50;;;32.80;75.10;;;;;;1869078;75;21175;-70
2022/03/24 08:28:17;;;;;;;7.58;5.37;;;32.80;76.70;;;;;;1864248;75;21158;-80
2022/03/24 08:30:48;;;;;;;7.55;5.42;;;32.80;76.70;;;;;;1847849;77;21175;-81
2022/03/24 08:33:20;;;;;;;6.65;5.20;;;32.90;81.60;;;;;;1903162;75;21700;-80
2022/03/24 08:35:51;;;;;;;7.22;5.92;;;32.90;77.40;;;;;;1828093;77;21104;-81
2022/03/24 08:38:24;;;;;;;7.92;5.80;;;32.90;76.50;;;;;;1857597;76;21104;-79
2022/03/24 08:40:55;;;;;;;9.13;6.03;;;32.90;75.30;;;;;;1915034;74;21060;-79
2022/03/24 08:43:32;;;;;;;9.03;5.72;;;33.00;75.40;;;;;;1861631;77;21149;-80
2022/03/24 08:46:01;;;;;;;8.30;5.78;;;33.00;77.10;;;;;;1859305;75;21147;-83
2022/03/24 08:48:33;;;;;;;6.92;5.50;;;33.00;76.80;;;;;;1893469;74;21166;-82
2022/03/24 08:51:06;;;;;;;7.10;5.33;;;33.00;74.20;;;;;;1831196;78;21230;-81
2022/03/24 08:53:36;;;;;;;6.40;5.62;;;32.90;74.30;;;;;;1829084;77;21214;-81
2022/03/24 08:56:13;;;;;;;7.83;5.67;;;33.00;75.40;;;;;;1831599;78;21152;-82
2022/03/24 08:58:41;;;;;;;5.92;5.10;;;32.90;74.80;;;;;;1823681;78;21275;-81
2022/03/24 09:01:14;;;;;;;7.55;5.35;;;33.00;74.60;;;;;;1833183;75;21144;-82
2022/03/24 09:03:48;;;;;;;6.62;5.03;;;33.00;74.90;;;;;;1850807;76;21734;-82
2022/03/24 09:06:19;;;;;;;8.60;5.00;;;33.00;76.20;;;;;;1891781;74;21212;-81
2022/03/24 09:08:53;;;;;;;6.60;5.15;;;33.00;80.20;;;;;;1831505;78;21713;-81
2022/03/24 09:11:45;;;;;;;7.87;5.28;;;32.90;74.60;;;;;;1824788;77;21202;-82
2022/03/24 09:14:27;;;;;;;8.85;5.35;;;32.90;75.10;;;;;;1868203;76;21581;-80
2022/03/24 09:17:02;;;;;;;6.78;5.42;;;33.00;74.30;;;;;;1888350;74;21539;-80
2022/03/24 09:19:34;;;;;;;8.23;5.20;;;32.90;75.30;;;;;;1834274;78;21121;-80
2022/03/24 09:22:06;;;;;;;8.63;5.35;;;33.00;74.80;;;;;;1835405;78;21101;-81
2022/03/24 09:24:43;;;;;;;8.00;5.47;;;33.00;74.80;;;;;;1831613;74;21156;-81
2022/03/24 09:27:15;;;;;;;6.85;5.25;;;33.00;74.10;;;;;;1834028;77;21218;-82
2022/03/24 09:29:57;;;;;;;8.75;5.45;;;33.00;72.70;;;;;;1833271;78;21179;-80
2022/03/24 09:32:28;;;;;;;7.08;5.25;;;33.00;72.80;;;;;;1832534;77;21061;-81
2022/03/24 09:34:59;;;;;;;7.33;5.42;;;32.90;72.40;;;;;;1837752;77;21203;-80
2022/03/24 09:37:33;;;;;;;6.50;4.95;;;33.00;74.70;;;;;;1827845;77;21175;-80
2022/03/24 09:40:09;;;;;;;5.62;5.10;;;32.90;73.40;;;;;;1839554;77;21140;-81
2022/03/24 09:42:40;;;;;;;7.33;4.97;;;32.90;74.40;;;;;;1833479;78;21658;-81
2022/03/24 09:45:13;;;;;;;6.08;5.28;;;32.90;71.60;;;;;;1838750;77;21655;-78
2022/03/24 09:47:44;;;;;;;9.55;5.15;;;32.80;72.10;;;;;;1844146;76;21451;-79
2022/03/24 09:50:17;;;;;;;8.33;5.35;;;32.80;71.00;;;;;;1875104;75;21666;-83
2022/03/24 09:52:48;;;;;;;11.70;5.17;;;32.70;69.70;;;;;;1864173;75;21531;-82
2022/03/24 09:55:22;;;;;;;9.03;5.55;;;32.70;70.60;;;;;;1868808;75;21226;-82
2022/03/24 09:57:52;;;;;;;8.75;5.22;;;32.70;70.00;;;;;;1830019;77;21186;-83
2022/03/24 10:00:32;;;;;;;16.27;5.58;;;32.70;71.80;;;;;;1827254;78;21159;-85
2022/03/24 10:03:09;;;;;;;8.28;5.25;;;32.60;70.80;;;;;;1852064;77;21635;-82
2022/03/24 10:05:43;;;;;;;6.78;5.53;;;32.60;70.90;;;;;;1896183;75;22315;-84
2022/03/24 10:08:17;;;;;;;7.35;5.80;;;32.50;71.70;;;;;;1863057;75;21690;-84
2022/03/24 10:10:49;;;;;;;9.60;5.70;;;32.50;76.00;;;;;;1867424;76;21615;-86
2022/03/24 10:13:24;;;;;;;8.30;6.00;;;32.50;72.80;;;;;;1867437;75;21072;-84
2022/03/24 10:15:57;;;;;;;9.53;5.70;;;32.50;75.50;;;;;;1864762;77;21088;-83
2022/03/24 10:18:29;;;;;;;6.42;5.25;;;32.40;75.70;;;;;;1867355;77;21229;-85
2022/03/24 10:21:03;;;;;;;7.12;5.95;;;32.30;72.50;;;;;;1867484;77;21100;-85
2022/03/24 10:23:34;;;;;;;8.88;6.12;;;32.30;73.90;;;;;;1868592;75;21057;-85
2022/03/24 10:26:05;;;;;;;7.25;5.75;;;32.30;73.40;;;;;;1870959;75;21143;-85
2022/03/24 10:28:38;;;;;;;7.15;5.83;;;32.30;74.00;;;;;;1866122;77;21187;-85
2022/03/24 10:31:09;;;;;;;7.08;4.97;;;32.30;76.80;;;;;;1866863;77;21265;-83
2022/03/24 10:33:45;;;;;;;7.72;5.50;;;32.10;78.00;;;;;;1852448;77;21203;-85
2022/03/24 10:36:23;;;;;;;9.83;5.60;;;32.00;78.50;;;;;;1902527;75;21157;-83
2022/03/24 10:38:52;;;;;;;8.60;4.95;;;31.90;80.80;;;;;;1854177;77;21131;-85
2022/03/24 10:41:23;;;;;;;12.13;5.95;;;31.70;80.90;;;;;;1828630;77;21128;-84
2022/03/24 10:43:56;;;;;;;11.15;6.67;;;31.50;80.20;;;;;;1862199;77;21147;-85
2022/03/24 10:46:30;;;;;;;8.25;5.72;;;31.30;81.30;;;;;;1862224;77;21089;-85
2022/03/24 10:49:09;;;;;;;11.00;6.33;;;31.20;82.30;;;;;;1863628;77;21135;-84
2022/03/24 10:51:41;;;;;;;11.88;5.80;;;31.10;82.80;;;;;;1865362;77;21171;-81
2022/03/24 10:54:14;;;;;;;15.65;6.92;;;31.00;83.70;;;;;;1870909;75;21241;-83
2022/03/24 10:56:54;;;;;;;10.65;6.58;;;31.00;85.60;;;;;;1870754;77;21595;-83
2022/03/24 10:59:27;;;;;;;12.40;6.87;;;30.80;86.20;;;;;;1852355;75;21158;-83
2022/03/24 11:01:58;;;;;;;9.68;6.42;;;30.70;86.70;;;;;;1868902;77;21095;-83
2022/03/24 11:04:31;;;;;;;9.20;6.67;;;30.60;87.20;;;;;;1872550;75;21622;-82
2022/03/24 11:07:03;;;;;;;9.40;5.97;;;30.50;88.40;;;;;;1862012;76;21159;-85
2022/03/24 11:09:35;;;;;;;11.90;6.50;;;30.40;87.90;;;;;;1905012;74;21616;-85
2022/03/24 11:12:08;;;;;;;8.13;5.87;;;30.40;88.50;;;;;;1911255;74;21168;-84
2022/03/24 11:14:42;;;;;;;11.40;5.83;;;30.30;88.70;;;;;;1858347;76;21151;-84
2022/03/24 11:17:13;;;;;;;8.93;6.35;;;30.30;88.80;;;;;;1862621;77;21161;-82
2022/03/24 11:19:46;;;;;;;9.83;5.55;;;30.20;88.80;;;;;;1910429;74;21128;-84
2022/03/24 11:22:17;;;;;;;6.40;4.37;;;30.10;89.00;;;;;;1907289;74;21216;-83
2022/03/24 11:24:50;;;;;;;6.28;3.77;;;30.10;88.60;;;;;;1874324;75;21178;-83
2022/03/24 11:27:24;;;;;;;7.17;3.85;;;30.00;88.00;;;;;;1876361;75;21646;-83
2022/03/24 11:29:55;;;;;;;4.45;3.60;;;30.00;87.80;;;;;;1837555;76;21096;-83
2022/03/24 11:32:27;;;;;;;8.00;3.55;;;29.90;88.30;;;;;;1844323;76;21100;-84
2022/03/24 11:34:59;;;;;;;4.67;3.37;;;29.80;88.30;;;;;;1827741;76;21147;-83
2022/03/24 11:37:30;;;;;;;9.08;3.80;;;29.80;87.90;;;;;;1832823;76;21225;-84
2022/03/24 11:40:04;;;;;;;7.33;2.92;;;29.80;88.30;;;;;;1823310;76;21087;-82
2022/03/24 11:42:37;;;;;;;7.40;3.90;;;29.70;87.90;;;;;;1856335;76;21135;-82
2022/03/24 11:45:15;;;;;;;5.42;3.20;;;29.70;87.70;;;;;;1907005;74;21223;-82
2022/03/24 11:47:49;;;;;;;6.75;3.77;;;29.70;87.90;;;;;;1892441;74;21106;-82
2022/03/24 11:50:21;;;;;;;8.18;3.58;;;29.60;87.70;;;;;;1891378;74;21082;-82
2022/03/24 11:52:55;;;;;;;6.95;3.92;;;29.70;87.30;;;;;;1822567;77;21089;-83
2022/03/24 11:55:26;;;;;;;9.80;6.62;;;29.70;87.20;;;;;;1851489;76;21096;-83
2022/03/24 11:58:00;;;;;;;8.15;4.42;;;29.60;86.10;;;;;;1906704;74;21267;-83
2022/03/24 12:00:30;;;;;;;6.15;3.65;;;29.60;85.80;;;;;;1832345;77;21241;-84
2022/03/24 12:03:02;;;;;;;10.68;4.15;;;29.50;86.20;;;;;;1841156;77;21105;-84
2022/03/24 12:05:35;;;;;;;13.75;6.70;;;29.40;86.20;;;;;;1902605;74;21633;-84
2022/03/24 12:08:06;;;;;;;12.65;7.85;;;29.40;85.90;;;;;;1900132;75;21239;-83
2022/03/24 12:10:39;;;;;;;9.60;6.87;;;29.30;86.50;;;;;;1909724;74;21208;-83
2022/03/24 12:13:14;;;;;;;8.90;6.37;;;29.20;86.30;;;;;;1903819;75;22332;-83
2022/03/24 12:15:46;;;;;;;8.75;6.33;;;29.20;86.70;;;;;;1831711;78;21160;-83
2022/03/24 12:18:18;;;;;;;10.72;5.60;;;29.10;87.50;;;;;;1866465;75;21172;-85
2022/03/24 12:20:49;;;;;;;8.08;5.60;;;29.00;87.70;;;;;;1863786;77;21087;-83
2022/03/24 12:23:20;;;;;;;5.83;4.70;;;28.90;88.00;;;;;;1830808;77;21225;-84
2022/03/24 12:25:56;;;;;;;9.00;5.50;;;28.90;88.20;;;;;;1829715;77;21921;-83
2022/03/24 12:28:32;;;;;;;10.68;6.20;;;28.90;88.70;;;;;;1861865;77;21159;-83
2022/03/24 12:31:04;;;;;;;7.97;5.10;;;28.90;88.80;;;;;;1827034;77;21132;-84
2022/03/24 12:33:36;;;;;;;8.68;5.65;;;28.80;88.60;;;;;;1847990;77;21125;-83
2022/03/24 12:36:21;;;;;;;11.97;6.85;;;28.80;89.00;;;;;;1859888;77;21575;-83
2022/03/24 12:38:56;;;;;;;8.23;4.42;;;28.80;88.80;;;;;;1848971;76;21164;-84
2022/03/24 12:41:30;;;;;;;7.83;4.95;;;28.90;89.20;;;;;;1900643;74;21133;-84
2022/03/24 12:44:03;;;;;;;7.55;4.40;;;28.90;88.80;;;;;;1812111;78;21265;-83
2022/03/24 12:46:35;;;;;;;8.35;4.70;;;28.90;88.70;;;;;;1847316;77;21145;-83
2022/03/24 12:49:09;;;;;;;6.90;4.08;;;28.90;88.60;;;;;;1882791;76;21165;-84
2022/03/24 12:51:42;;;;;;;9.45;4.85;;;29.00;88.70;;;;;;1866378;76;21277;-83
2022/03/24 12:54:16;;;;;;;8.25;4.70;;;29.00;88.80;;;;;;1884656;75;21228;-84
2022/03/24 12:56:48;;;;;;;6.42;3.70;;;29.00;88.30;;;;;;1813492;77;21131;-84
2022/03/24 12:59:33;;;;;;;12.30;4.28;;;29.00;89.00;;;;;;1874472;75;21193;-83
2022/03/24 13:02:05;;;;;;;7.30;3.50;;;29.00;89.80;;;;;;1873519;75;21243;-86
2022/03/24 13:04:38;;;;;;;6.60;3.75;;;28.90;90.00;;;;;;1878187;75;21155;-84
2022/03/24 13:07:13;;;;;;;12.07;3.87;;;28.90;90.10;;;;;;1885193;75;21111;-83
2022/03/24 13:09:44;;;;;;;10.10;3.72;;;28.90;90.20;;;;;;1876968;75;21175;-84